Terminal Aerodrome Forecast
Issued by NWS

Home | Current Version | Previous Version | Text Only | Print | Product List | Glossary On
Versions: 1 2 3 4 5 6 7 8 9 10 11 12 13 14 15 16 17 18 19 20 21 22 23 24 25 26 27 28 29 30 31 32 33 34 35 36 37 38 39 40 41 42 43
000
FTUS44 KMOB 040308 AAA
TAFBFM
TAF AMD
KBFM 040308Z 0403/0424 00000KT P6SM SKC
     FM040800 15006KT 1/4SM FG OVC004
     FM041500 17008KT 4SM BR OVC007
     FM041800 16007KT P6SM BKN015=

USA.gov is the U.S. government's official web portal to all federal, state and local government web resources and services.